Borup, Minnesota
Current Conditions -  °F | °C
As of 1:53 PM on Sunday 23 Nov 2014 (Local Time) from KFAR Reporting Station
Overcast Overcast  
Wind Chill: 26°   Ceiling: 2600
Heat Index: 37°   Visibility: 10mi
Dew Point: 23°   Wind: 23mph
Humidity: 57%   Direction: 290°WNW
Pressure: 29.46"   Gusts: NA
Location:  47.18°N, 96.51°W
Report Text: KFAR 231953Z 29020KT 10SM OVC026 03/M05 A2946 RMK AO2 PK WND 29027/1924 RAB25E35 SLP986 P0000 T00281050
Loading
Personal Weather Stations






























Interactive Weather Map New forecast layout! Learn more

10-Day Weather Forecast

Advertisements
Track Severe Weather on mobile